sensor_id;sensor_type;location;lat;lon;timestamp;pressure;altitude;pressure_sealevel;temperature;humidity
58739;BME280;44512;53.046;18.604;2023-06-04T00:05:14;102333.64;;;16.08;34.88
58739;BME280;44512;53.046;18.604;2023-06-04T00:15:42;102338.98;;;15.95;35.19
58739;BME280;44512;53.046;18.604;2023-06-04T00:26:11;102327.30;;;15.80;35.54
58739;BME280;44512;53.046;18.604;2023-06-04T00:36:40;102321.05;;;15.65;35.93
58739;BME280;44512;53.046;18.604;2023-06-04T00:47:07;102314.79;;;15.49;36.37
58739;BME280;44512;53.046;18.604;2023-06-04T00:57:37;102319.07;;;15.37;36.77
58739;BME280;44512;53.046;18.604;2023-06-04T01:08:04;102318.91;;;15.24;37.05
58739;BME280;44512;53.046;18.604;2023-06-04T01:18:34;102312.02;;;15.06;37.38
58739;BME280;44512;53.046;18.604;2023-06-04T01:29:01;102317.70;;;14.90;37.78
58739;BME280;44512;53.046;18.604;2023-06-04T01:39:29;102319.12;;;14.71;38.02
58739;BME280;44512;53.046;18.604;2023-06-04T01:49:57;102325.99;;;14.52;38.46
58739;BME280;44512;53.046;18.604;2023-06-04T02:00:26;102318.98;;;14.35;38.87
58739;BME280;44512;53.046;18.604;2023-06-04T02:10:54;102323.56;;;14.20;39.21
58739;BME280;44512;53.046;18.604;2023-06-04T02:21:22;102309.82;;;13.98;39.49
58739;BME280;44512;53.046;18.604;2023-06-04T02:31:51;102317.65;;;13.78;39.96
58739;BME280;44512;53.046;18.604;2023-06-04T02:42:19;102307.38;;;13.66;40.38
58739;BME280;44512;53.046;18.604;2023-06-04T02:52:47;102314.45;;;13.52;40.76
58739;BME280;44512;53.046;18.604;2023-06-04T03:03:16;102317.79;;;13.39;41.09
58739;BME280;44512;53.046;18.604;2023-06-04T03:13:44;102299.19;;;13.20;41.40
58739;BME280;44512;53.046;18.604;2023-06-04T03:24:13;102313.49;;;13.14;41.89
58739;BME280;44512;53.046;18.604;2023-06-04T03:34:41;102308.41;;;13.11;42.45
58739;BME280;44512;53.046;18.604;2023-06-04T03:45:09;102310.93;;;13.12;42.83
58739;BME280;44512;53.046;18.604;2023-06-04T03:55:38;102302.74;;;13.20;43.09
58739;BME280;44512;53.046;18.604;2023-06-04T04:06:06;102308.33;;;13.27;43.38
58739;BME280;44512;53.046;18.604;2023-06-04T04:16:35;102303.20;;;13.32;43.68
58739;BME280;44512;53.046;18.604;2023-06-04T04:27:04;102300.24;;;13.42;43.86
58739;BME280;44512;53.046;18.604;2023-06-04T04:37:31;102296.75;;;13.56;43.74
58739;BME280;44512;53.046;18.604;2023-06-04T04:48:00;102295.27;;;13.68;43.19
58739;BME280;44512;53.046;18.604;2023-06-04T04:58:28;102289.24;;;13.81;42.72
58739;BME280;44512;53.046;18.604;2023-06-04T05:08:56;102304.92;;;13.94;41.98
58739;BME280;44512;53.046;18.604;2023-06-04T05:19:25;102317.23;;;14.04;41.83
58739;BME280;44512;53.046;18.604;2023-06-04T05:29:53;102324.96;;;14.16;41.66
58739;BME280;44512;53.046;18.604;2023-06-04T05:40:22;102325.18;;;14.29;41.48
58739;BME280;44512;53.046;18.604;2023-06-04T05:50:50;102327.08;;;14.43;41.44
58739;BME280;44512;53.046;18.604;2023-06-04T06:01:18;102333.58;;;14.57;41.27
58739;BME280;44512;53.046;18.604;2023-06-04T06:11:47;102337.98;;;14.73;40.74
58739;BME280;44512;53.046;18.604;2023-06-04T06:22:15;102333.58;;;14.87;40.43
58739;BME280;44512;53.046;18.604;2023-06-04T06:32:43;102345.95;;;15.04;40.00
58739;BME280;44512;53.046;18.604;2023-06-04T06:43:12;102355.82;;;15.20;39.05
58739;BME280;44512;53.046;18.604;2023-06-04T06:53:40;102357.27;;;15.37;37.85
58739;BME280;44512;53.046;18.604;2023-06-04T07:04:08;102348.84;;;15.53;36.60
58739;BME280;44512;53.046;18.604;2023-06-04T07:14:37;102357.27;;;15.73;34.96
58739;BME280;44512;53.046;18.604;2023-06-04T07:25:06;102345.24;;;15.89;33.95
58739;BME280;44512;53.046;18.604;2023-06-04T07:35:33;102347.68;;;16.05;33.54
58739;BME280;44512;53.046;18.604;2023-06-04T07:46:02;102335.83;;;16.20;33.28
58739;BME280;44512;53.046;18.604;2023-06-04T07:56:29;102334.67;;;16.35;33.04
58739;BME280;44512;53.046;18.604;2023-06-04T08:06:58;102342.77;;;16.50;32.87
58739;BME280;44512;53.046;18.604;2023-06-04T08:17:26;102343.29;;;16.67;32.60
58739;BME280;44512;53.046;18.604;2023-06-04T08:27:55;102331.21;;;16.83;32.34
58739;BME280;44512;53.046;18.604;2023-06-04T08:38:23;102331.28;;;16.96;31.60
58739;BME280;44512;53.046;18.604;2023-06-04T08:48:52;102332.37;;;17.08;31.09
58739;BME280;44512;53.046;18.604;2023-06-04T08:59:20;102328.82;;;17.21;31.03
58739;BME280;44512;53.046;18.604;2023-06-04T09:09:48;102330.15;;;17.32;32.23
58739;BME280;44512;53.046;18.604;2023-06-04T09:20:21;102331.84;;;17.46;32.10
58739;BME280;44512;53.046;18.604;2023-06-04T09:30:53;102317.98;;;17.61;31.38
58739;BME280;44512;53.046;18.604;2023-06-04T09:41:15;102313.77;;;17.71;31.49
58739;BME280;44512;53.046;18.604;2023-06-04T09:51:47;102309.20;;;17.85;31.48
58739;BME280;44512;53.046;18.604;2023-06-04T10:02:11;102302.03;;;18.04;30.37
58739;BME280;44512;53.046;18.604;2023-06-04T10:12:39;102305.39;;;18.19;30.06
58739;BME280;44512;53.046;18.604;2023-06-04T10:23:07;102307.69;;;18.36;30.54
58739;BME280;44512;53.046;18.604;2023-06-04T10:33:35;102298.98;;;18.52;30.58
58739;BME280;44512;53.046;18.604;2023-06-04T10:44:03;102285.87;;;18.67;29.93
58739;BME280;44512;53.046;18.604;2023-06-04T10:54:31;102284.79;;;18.82;29.27
58739;BME280;44512;53.046;18.604;2023-06-04T11:05:05;102290.66;;;18.92;29.89
58739;BME280;44512;53.046;18.604;2023-06-04T11:25:57;102281.41;;;19.24;29.62
58739;BME280;44512;53.046;18.604;2023-06-04T11:36:26;102273.23;;;19.43;29.56
58739;BME280;44512;53.046;18.604;2023-06-04T11:46:54;102278.25;;;19.59;28.83
58739;BME280;44512;53.046;18.604;2023-06-04T11:57:22;102263.80;;;19.70;28.08
58739;BME280;44512;53.046;18.604;2023-06-04T12:07:51;102262.42;;;19.80;28.21
58739;BME280;44512;53.046;18.604;2023-06-04T12:18:24;102256.82;;;19.93;28.06
58739;BME280;44512;53.046;18.604;2023-06-04T12:39:15;102266.42;;;20.27;27.54
58739;BME280;44512;53.046;18.604;2023-06-04T12:49:44;102264.51;;;20.46;27.29
58739;BME280;44512;53.046;18.604;2023-06-04T13:00:12;102256.30;;;20.64;27.01
58739;BME280;44512;53.046;18.604;2023-06-04T13:10:40;102253.75;;;20.81;27.13
58739;BME280;44512;53.046;18.604;2023-06-04T13:21:08;102234.46;;;20.99;26.65
58739;BME280;44512;53.046;18.604;2023-06-04T13:31:37;102232.26;;;21.20;26.27
58739;BME280;44512;53.046;18.604;2023-06-04T13:42:05;102227.45;;;21.45;26.39
58739;BME280;44512;53.046;18.604;2023-06-04T13:52:33;102219.19;;;21.69;26.24
58739;BME280;44512;53.046;18.604;2023-06-04T14:03:02;102223.89;;;21.92;25.67
58739;BME280;44512;53.046;18.604;2023-06-04T14:13:30;102228.68;;;22.08;25.50
58739;BME280;44512;53.046;18.604;2023-06-04T14:23:58;102225.57;;;22.28;25.72
58739;BME280;44512;53.046;18.604;2023-06-04T14:34:26;102227.27;;;22.57;25.25
58739;BME280;44512;53.046;18.604;2023-06-04T14:50:13;102219.20;;;23.08;24.46
58739;BME280;44512;53.046;18.604;2023-06-04T15:00:42;102227.20;;;23.55;25.35
58739;BME280;44512;53.046;18.604;2023-06-04T15:11:10;102207.24;;;24.03;28.19
58739;BME280;44512;53.046;18.604;2023-06-04T15:21:38;102210.41;;;24.51;28.97
58739;BME280;44512;53.046;18.604;2023-06-04T15:32:07;102202.03;;;24.94;28.05
58739;BME280;44512;53.046;18.604;2023-06-04T15:42:35;102209.05;;;25.29;27.08
58739;BME280;44512;53.046;18.604;2023-06-04T15:53:03;102196.29;;;25.60;26.89
58739;BME280;44512;53.046;18.604;2023-06-04T16:03:32;102189.87;;;25.92;26.01
58739;BME280;44512;53.046;18.604;2023-06-04T16:14:00;102191.16;;;26.21;23.21
58739;BME280;44512;53.046;18.604;2023-06-04T16:24:29;102187.96;;;26.50;22.05
58739;BME280;44512;53.046;18.604;2023-06-04T16:34:57;102194.41;;;26.71;21.55
58739;BME280;44512;53.046;18.604;2023-06-04T16:45:25;102190.00;;;26.85;20.92
58739;BME280;44512;53.046;18.604;2023-06-04T16:55:53;102183.63;;;26.90;20.80
58739;BME280;44512;53.046;18.604;2023-06-04T17:06:22;102185.29;;;26.91;20.58
58739;BME280;44512;53.046;18.604;2023-06-04T17:16:50;102193.30;;;26.77;20.57
58739;BME280;44512;53.046;18.604;2023-06-04T17:27:18;102200.46;;;26.47;20.65
58739;BME280;44512;53.046;18.604;2023-06-04T17:37:46;102195.54;;;26.12;20.89
58739;BME280;44512;53.046;18.604;2023-06-04T17:48:15;102191.09;;;25.74;21.13
58739;BME280;44512;53.046;18.604;2023-06-04T17:58:43;102190.26;;;25.36;21.60
58739;BME280;44512;53.046;18.604;2023-06-04T18:09:11;102189.96;;;25.06;22.08
58739;BME280;44512;53.046;18.604;2023-06-04T18:19:40;102195.49;;;24.79;22.38
58739;BME280;44512;53.046;18.604;2023-06-04T18:30:09;102204.34;;;24.54;22.92
58739;BME280;44512;53.046;18.604;2023-06-04T18:40:36;102202.89;;;24.29;23.90
58739;BME280;44512;53.046;18.604;2023-06-04T18:51:05;102211.43;;;24.06;24.46
58739;BME280;44512;53.046;18.604;2023-06-04T19:01:33;102220.45;;;23.79;25.27
58739;BME280;44512;53.046;18.604;2023-06-04T19:12:02;102221.09;;;23.53;25.88
58739;BME280;44512;53.046;18.604;2023-06-04T19:22:30;102225.57;;;23.25;26.21
58739;BME280;44512;53.046;18.604;2023-06-04T19:32:58;102236.06;;;22.95;26.30
58739;BME280;44512;53.046;18.604;2023-06-04T19:43:27;102239.77;;;22.60;26.81
58739;BME280;44512;53.046;18.604;2023-06-04T19:53:55;102242.34;;;22.26;27.14
58739;BME280;44512;53.046;18.604;2023-06-04T20:04:23;102248.45;;;21.93;27.56
58739;BME280;44512;53.046;18.604;2023-06-04T20:14:51;102247.34;;;21.59;28.15
58739;BME280;44512;53.046;18.604;2023-06-04T20:25:20;102248.84;;;21.31;28.80
58739;BME280;44512;53.046;18.604;2023-06-04T20:35:48;102250.42;;;21.09;29.34
58739;BME280;44512;53.046;18.604;2023-06-04T20:46:17;102264.66;;;20.88;29.59
58739;BME280;44512;53.046;18.604;2023-06-04T20:56:45;102251.88;;;20.63;29.80
58739;BME280;44512;53.046;18.604;2023-06-04T21:07:13;102252.16;;;20.37;30.02
58739;BME280;44512;53.046;18.604;2023-06-04T21:17:42;102263.37;;;20.17;30.77
58739;BME280;44512;53.046;18.604;2023-06-04T21:28:10;102265.23;;;19.98;30.99
58739;BME280;44512;53.046;18.604;2023-06-04T21:38:38;102283.38;;;19.74;31.02
58739;BME280;44512;53.046;18.604;2023-06-04T21:49:07;102296.80;;;19.57;30.82
58739;BME280;44512;53.046;18.604;2023-06-04T21:59:35;102303.02;;;19.46;31.37
58739;BME280;44512;53.046;18.604;2023-06-04T22:10:04;102309.22;;;19.35;32.70
58739;BME280;44512;53.046;18.604;2023-06-04T22:20:32;102307.60;;;19.20;34.09
58739;BME280;44512;53.046;18.604;2023-06-04T22:31:00;102317.60;;;19.08;35.12
58739;BME280;44512;53.046;18.604;2023-06-04T22:41:28;102320.83;;;18.92;35.91
58739;BME280;44512;53.046;18.604;2023-06-04T22:51:57;102322.81;;;18.71;36.49
58739;BME280;44512;53.046;18.604;2023-06-04T23:02:25;102327.25;;;18.53;36.93
58739;BME280;44512;53.046;18.604;2023-06-04T23:12:53;102338.24;;;18.33;37.44
58739;BME280;44512;53.046;18.604;2023-06-04T23:23:22;102345.02;;;18.10;37.92
58739;BME280;44512;53.046;18.604;2023-06-04T23:33:50;102336.79;;;17.90;38.34
58739;BME280;44512;53.046;18.604;2023-06-04T23:44:19;102339.48;;;17.70;38.73
58739;BME280;44512;53.046;18.604;2023-06-04T23:54:47;102332.72;;;17.53;39.08
